Hauptseite
METAR-TAF:

METAR-TAF

Flughäfen :

Elmira / Corning, New York, Vereinigte Staaten

Breite: 42-09-23N, Länge: 076-54-10W, Höhe: 291 m

Beobachtung

Neuester Wetterbericht von vor 36 Minuten, um 02:53 UTC
Windstille
Temperatur -2°C
Luftfeuchtigkeit 69%
Luftdruck 1021 hPa
Sichtweite: 16.1 km
Aufgelockert bewölkt in der Höhe von 4100 ft

METAR: KELM 160253Z 00000KT 10SM SCT041 M02/M07 A3014 RMK AO2 SLP215 T10221072 51018

Zeit: 22:29 (03:29 UTC)

Prognose

Neuester Wetterbericht von vor 3 Stunden und 49 Minuten, um 23:40 UTC
Gültige Prognose vom 16 um 00 UTC bis 16 um 24 UTC
Wind 8 kt aus West/Nordwest
Sichtweite: 10 km
Durchbrochene Bewölkung in der Höhe von 5000 ft
Ab 16 um 0800 UTC
Wind 3 kt aus unterschiedlichen Richtungen
Sichtweite: 10 km
Durchbrochene Bewölkung in der Höhe von 10000 ft

TAF: KELM 152340Z 1600/1624 29008KT P6SM BKN050 FM160800 VRB03KT P6SM BKN100

Wetterbeobachtungen und Prognosen von mehr als 4000 Flughäfen (METAR und TAF Bericht).

Die verfügbaren Stationen werden durch gelbe und rote Markierungen auf der Karte dargestellt.

Führen Sie die Maus auf sie, um den Namen der Station zu sehen.

Darauf klicken, um die Beobachtung von Wetterbeobachtungen und Prognosen zu sehen.

Um die Karte zu ändern : klicken Sie auf den grünen Tasten mit einem schwarzen Kreuz Zum Vergrößern, auf den grünen Button mit einem Gedankenstrich zu verkleinern, oder auf die grünen Pfeile für benachbarte Karten.


METAR-TAF: